sensor_id;sensor_type;location;lat;lon;timestamp;temperature;humidity
782;DHT22;374;52.568;13.402;2023-07-28T00:02:06;18.60;99.90
782;DHT22;374;52.568;13.402;2023-07-28T00:04:34;18.60;99.90
782;DHT22;374;52.568;13.402;2023-07-28T00:06:59;18.60;99.90
782;DHT22;374;52.568;13.402;2023-07-28T00:09:25;18.60;99.90
782;DHT22;374;52.568;13.402;2023-07-28T00:11:50;18.50;99.90
782;DHT22;374;52.568;13.402;2023-07-28T00:14:16;18.50;99.90
782;DHT22;374;52.568;13.402;2023-07-28T00:16:41;18.50;99.90
782;DHT22;374;52.568;13.402;2023-07-28T00:19:07;18.50;99.90
782;DHT22;374;52.568;13.402;2023-07-28T00:21:32;18.50;99.90
782;DHT22;374;52.568;13.402;2023-07-28T00:23:58;18.50;99.90
782;DHT22;374;52.568;13.402;2023-07-28T00:26:23;18.50;99.90
782;DHT22;374;52.568;13.402;2023-07-28T00:28:49;18.50;99.90
782;DHT22;374;52.568;13.402;2023-07-28T00:31:16;18.50;99.90
782;DHT22;374;52.568;13.402;2023-07-28T00:33:42;18.50;99.90
782;DHT22;374;52.568;13.402;2023-07-28T00:36:08;18.50;99.90
782;DHT22;374;52.568;13.402;2023-07-28T00:38:33;18.50;99.90
782;DHT22;374;52.568;13.402;2023-07-28T00:40:59;18.40;99.90
782;DHT22;374;52.568;13.402;2023-07-28T00:43:25;18.50;99.90
782;DHT22;374;52.568;13.402;2023-07-28T00:45:50;18.40;99.90
782;DHT22;374;52.568;13.402;2023-07-28T00:48:16;18.40;99.90
782;DHT22;374;52.568;13.402;2023-07-28T00:50:44;18.40;99.90
782;DHT22;374;52.568;13.402;2023-07-28T00:53:13;18.30;99.90
782;DHT22;374;52.568;13.402;2023-07-28T00:55:39;18.30;99.90
782;DHT22;374;52.568;13.402;2023-07-28T00:58:04;18.30;99.90
782;DHT22;374;52.568;13.402;2023-07-28T01:00:30;18.30;99.90
782;DHT22;374;52.568;13.402;2023-07-28T01:02:58;18.40;99.90
782;DHT22;374;52.568;13.402;2023-07-28T01:05:31;18.30;99.90
782;DHT22;374;52.568;13.402;2023-07-28T01:08:11;18.40;99.90
782;DHT22;374;52.568;13.402;2023-07-28T01:10:38;18.40;99.90
782;DHT22;374;52.568;13.402;2023-07-28T01:13:04;18.30;99.90
782;DHT22;374;52.568;13.402;2023-07-28T01:15:29;18.30;99.90
782;DHT22;374;52.568;13.402;2023-07-28T01:17:55;18.30;99.90
782;DHT22;374;52.568;13.402;2023-07-28T01:20:22;18.30;99.90
782;DHT22;374;52.568;13.402;2023-07-28T01:23:13;18.30;99.90
782;DHT22;374;52.568;13.402;2023-07-28T01:26:06;18.30;99.90
782;DHT22;374;52.568;13.402;2023-07-28T01:28:34;18.30;99.90
782;DHT22;374;52.568;13.402;2023-07-28T01:31:06;18.30;99.90
782;DHT22;374;52.568;13.402;2023-07-28T01:33:32;18.20;99.90
782;DHT22;374;52.568;13.402;2023-07-28T01:35:58;18.20;99.90
782;DHT22;374;52.568;13.402;2023-07-28T01:38:25;18.20;99.90
782;DHT22;374;52.568;13.402;2023-07-28T01:40:51;18.20;99.90
782;DHT22;374;52.568;13.402;2023-07-28T01:43:16;18.30;99.90
782;DHT22;374;52.568;13.402;2023-07-28T01:45:42;18.30;99.90
782;DHT22;374;52.568;13.402;2023-07-28T01:48:07;18.30;99.90
782;DHT22;374;52.568;13.402;2023-07-28T01:50:38;18.20;99.90
782;DHT22;374;52.568;13.402;2023-07-28T01:53:05;18.20;99.90
782;DHT22;374;52.568;13.402;2023-07-28T01:55:30;18.20;99.90
782;DHT22;374;52.568;13.402;2023-07-28T01:57:58;18.20;99.90
782;DHT22;374;52.568;13.402;2023-07-28T02:00:24;18.20;99.90
782;DHT22;374;52.568;13.402;2023-07-28T02:02:53;18.20;99.90
782;DHT22;374;52.568;13.402;2023-07-28T02:05:18;18.10;99.90
782;DHT22;374;52.568;13.402;2023-07-28T02:07:44;18.10;99.90
782;DHT22;374;52.568;13.402;2023-07-28T02:10:10;18.10;99.90
782;DHT22;374;52.568;13.402;2023-07-28T02:12:36;18.10;99.90
782;DHT22;374;52.568;13.402;2023-07-28T02:15:02;18.20;99.90
782;DHT22;374;52.568;13.402;2023-07-28T02:17:28;18.20;99.90
782;DHT22;374;52.568;13.402;2023-07-28T02:19:54;18.20;99.90
782;DHT22;374;52.568;13.402;2023-07-28T02:22:19;18.10;99.90
782;DHT22;374;52.568;13.402;2023-07-28T02:24:44;18.10;99.90
782;DHT22;374;52.568;13.402;2023-07-28T02:27:10;18.10;99.90
782;DHT22;374;52.568;13.402;2023-07-28T02:29:35;18.10;99.90
782;DHT22;374;52.568;13.402;2023-07-28T02:32:01;18.20;99.90
782;DHT22;374;52.568;13.402;2023-07-28T02:34:26;18.00;99.90
782;DHT22;374;52.568;13.402;2023-07-28T02:36:52;18.10;99.90
782;DHT22;374;52.568;13.402;2023-07-28T02:39:20;18.10;99.90
782;DHT22;374;52.568;13.402;2023-07-28T02:41:46;18.10;99.90
782;DHT22;374;52.568;13.402;2023-07-28T02:44:15;18.10;99.90
782;DHT22;374;52.568;13.402;2023-07-28T02:46:40;18.10;99.90
782;DHT22;374;52.568;13.402;2023-07-28T02:49:06;18.10;99.90
782;DHT22;374;52.568;13.402;2023-07-28T02:51:31;18.10;99.90
782;DHT22;374;52.568;13.402;2023-07-28T02:53:58;18.10;99.90
782;DHT22;374;52.568;13.402;2023-07-28T02:56:24;18.10;99.90
782;DHT22;374;52.568;13.402;2023-07-28T02:58:50;18.20;99.90
782;DHT22;374;52.568;13.402;2023-07-28T03:01:15;18.20;99.90
782;DHT22;374;52.568;13.402;2023-07-28T03:03:47;18.10;99.90
782;DHT22;374;52.568;13.402;2023-07-28T03:06:12;18.20;99.90
782;DHT22;374;52.568;13.402;2023-07-28T03:08:38;18.10;99.90
782;DHT22;374;52.568;13.402;2023-07-28T03:11:03;18.10;99.90
782;DHT22;374;52.568;13.402;2023-07-28T03:13:31;18.10;99.90
782;DHT22;374;52.568;13.402;2023-07-28T03:15:57;18.10;99.90
782;DHT22;374;52.568;13.402;2023-07-28T03:18:22;18.10;99.90
782;DHT22;374;52.568;13.402;2023-07-28T03:20:48;18.20;99.90
782;DHT22;374;52.568;13.402;2023-07-28T03:23:13;18.10;99.90
782;DHT22;374;52.568;13.402;2023-07-28T03:25:42;18.10;99.90
782;DHT22;374;52.568;13.402;2023-07-28T03:28:07;18.10;99.90
782;DHT22;374;52.568;13.402;2023-07-28T03:30:33;18.10;99.90
782;DHT22;374;52.568;13.402;2023-07-28T03:32:58;18.10;99.90
782;DHT22;374;52.568;13.402;2023-07-28T03:35:24;18.10;99.90
782;DHT22;374;52.568;13.402;2023-07-28T03:37:49;18.00;99.90
782;DHT22;374;52.568;13.402;2023-07-28T03:40:15;18.10;99.90
782;DHT22;374;52.568;13.402;2023-07-28T03:42:42;18.10;99.90
782;DHT22;374;52.568;13.402;2023-07-28T03:45:08;18.10;99.90
782;DHT22;374;52.568;13.402;2023-07-28T03:47:34;18.10;99.90
782;DHT22;374;52.568;13.402;2023-07-28T03:50:00;18.10;99.90
782;DHT22;374;52.568;13.402;2023-07-28T03:52:25;18.10;99.90
782;DHT22;374;52.568;13.402;2023-07-28T03:54:51;18.00;99.90
782;DHT22;374;52.568;13.402;2023-07-28T03:57:16;18.00;99.90
782;DHT22;374;52.568;13.402;2023-07-28T03:59:42;18.00;99.90
782;DHT22;374;52.568;13.402;2023-07-28T04:02:07;18.10;99.90
782;DHT22;374;52.568;13.402;2023-07-28T04:04:32;18.10;99.90
782;DHT22;374;52.568;13.402;2023-07-28T04:06:58;18.10;99.90
782;DHT22;374;52.568;13.402;2023-07-28T04:09:24;18.10;99.90
782;DHT22;374;52.568;13.402;2023-07-28T04:11:49;18.10;99.90
782;DHT22;374;52.568;13.402;2023-07-28T04:14:15;18.10;99.90
782;DHT22;374;52.568;13.402;2023-07-28T04:16:40;18.10;99.90
782;DHT22;374;52.568;13.402;2023-07-28T04:19:06;18.10;99.90
782;DHT22;374;52.568;13.402;2023-07-28T04:21:34;18.10;99.90
782;DHT22;374;52.568;13.402;2023-07-28T04:24:00;18.10;99.90
782;DHT22;374;52.568;13.402;2023-07-28T04:26:25;18.10;99.90
782;DHT22;374;52.568;13.402;2023-07-28T04:28:51;18.10;99.90
782;DHT22;374;52.568;13.402;2023-07-28T04:31:16;18.10;99.90
782;DHT22;374;52.568;13.402;2023-07-28T04:33:42;18.10;99.90
782;DHT22;374;52.568;13.402;2023-07-28T04:36:08;18.10;99.90
782;DHT22;374;52.568;13.402;2023-07-28T04:38:34;18.00;99.90
782;DHT22;374;52.568;13.402;2023-07-28T04:41:00;18.10;99.90
782;DHT22;374;52.568;13.402;2023-07-28T04:43:25;18.00;99.90
782;DHT22;374;52.568;13.402;2023-07-28T04:45:51;18.00;99.90
782;DHT22;374;52.568;13.402;2023-07-28T04:48:16;18.00;99.90
782;DHT22;374;52.568;13.402;2023-07-28T04:50:42;18.00;99.90
782;DHT22;374;52.568;13.402;2023-07-28T04:53:07;18.00;99.90
782;DHT22;374;52.568;13.402;2023-07-28T04:55:33;18.00;99.90
782;DHT22;374;52.568;13.402;2023-07-28T04:57:58;18.10;99.90
782;DHT22;374;52.568;13.402;2023-07-28T05:00:24;18.10;99.90
782;DHT22;374;52.568;13.402;2023-07-28T05:02:49;18.10;99.90
782;DHT22;374;52.568;13.402;2023-07-28T05:05:15;18.10;99.90
782;DHT22;374;52.568;13.402;2023-07-28T05:07:41;18.00;99.90
782;DHT22;374;52.568;13.402;2023-07-28T05:10:07;18.00;99.90
782;DHT22;374;52.568;13.402;2023-07-28T05:12:33;18.10;99.90
782;DHT22;374;52.568;13.402;2023-07-28T05:14:58;18.00;99.90
782;DHT22;374;52.568;13.402;2023-07-28T05:17:24;18.10;99.90
782;DHT22;374;52.568;13.402;2023-07-28T05:19:53;18.00;99.90
782;DHT22;374;52.568;13.402;2023-07-28T05:22:18;18.00;99.90
782;DHT22;374;52.568;13.402;2023-07-28T05:24:44;18.00;99.90
782;DHT22;374;52.568;13.402;2023-07-28T05:27:17;18.00;99.90
782;DHT22;374;52.568;13.402;2023-07-28T05:29:43;18.00;99.90
782;DHT22;374;52.568;13.402;2023-07-28T05:32:08;18.00;99.90
782;DHT22;374;52.568;13.402;2023-07-28T05:34:34;18.00;99.90
782;DHT22;374;52.568;13.402;2023-07-28T05:36:59;18.00;99.90
782;DHT22;374;52.568;13.402;2023-07-28T05:39:25;18.10;99.90
782;DHT22;374;52.568;13.402;2023-07-28T05:41:50;18.00;99.90
782;DHT22;374;52.568;13.402;2023-07-28T05:44:15;18.10;99.90
782;DHT22;374;52.568;13.402;2023-07-28T05:46:44;18.00;99.90
782;DHT22;374;52.568;13.402;2023-07-28T05:49:11;18.00;99.90
782;DHT22;374;52.568;13.402;2023-07-28T05:51:36;18.00;99.90
782;DHT22;374;52.568;13.402;2023-07-28T05:54:02;18.00;99.90
782;DHT22;374;52.568;13.402;2023-07-28T05:56:27;18.10;99.90
782;DHT22;374;52.568;13.402;2023-07-28T05:58:53;18.00;99.90
782;DHT22;374;52.568;13.402;2023-07-28T06:01:18;18.10;99.90
782;DHT22;374;52.568;13.402;2023-07-28T06:03:44;18.10;99.90
782;DHT22;374;52.568;13.402;2023-07-28T06:06:10;18.10;99.90
782;DHT22;374;52.568;13.402;2023-07-28T06:08:35;18.10;99.90
782;DHT22;374;52.568;13.402;2023-07-28T06:11:06;18.10;99.90
782;DHT22;374;52.568;13.402;2023-07-28T06:13:32;18.10;99.90
782;DHT22;374;52.568;13.402;2023-07-28T06:15:58;18.10;99.90
782;DHT22;374;52.568;13.402;2023-07-28T06:18:24;18.10;99.90
782;DHT22;374;52.568;13.402;2023-07-28T06:20:49;18.10;99.90
782;DHT22;374;52.568;13.402;2023-07-28T06:23:15;18.10;99.90
782;DHT22;374;52.568;13.402;2023-07-28T06:25:40;18.10;99.90
782;DHT22;374;52.568;13.402;2023-07-28T06:28:10;18.10;99.90
782;DHT22;374;52.568;13.402;2023-07-28T06:30:36;18.10;99.90
782;DHT22;374;52.568;13.402;2023-07-28T06:33:01;18.00;99.90
782;DHT22;374;52.568;13.402;2023-07-28T06:35:28;18.10;99.90
782;DHT22;374;52.568;13.402;2023-07-28T06:37:54;18.10;99.90
782;DHT22;374;52.568;13.402;2023-07-28T06:40:19;18.10;99.90
782;DHT22;374;52.568;13.402;2023-07-28T06:42:45;18.10;99.90
782;DHT22;374;52.568;13.402;2023-07-28T06:45:11;18.10;99.90
782;DHT22;374;52.568;13.402;2023-07-28T06:47:37;18.10;99.90
782;DHT22;374;52.568;13.402;2023-07-28T06:50:02;18.10;99.90
782;DHT22;374;52.568;13.402;2023-07-28T06:52:28;18.10;99.90
782;DHT22;374;52.568;13.402;2023-07-28T06:54:53;18.10;99.90
782;DHT22;374;52.568;13.402;2023-07-28T06:57:20;18.10;99.90
782;DHT22;374;52.568;13.402;2023-07-28T06:59:45;18.10;99.90
782;DHT22;374;52.568;13.402;2023-07-28T07:02:11;18.10;99.90
782;DHT22;374;52.568;13.402;2023-07-28T07:04:36;18.10;99.90
782;DHT22;374;52.568;13.402;2023-07-28T07:07:04;18.20;99.90
782;DHT22;374;52.568;13.402;2023-07-28T07:09:30;18.10;99.90
782;DHT22;374;52.568;13.402;2023-07-28T07:11:56;18.10;99.90
782;DHT22;374;52.568;13.402;2023-07-28T07:14:21;18.20;99.90
782;DHT22;374;52.568;13.402;2023-07-28T07:16:48;18.20;99.90
782;DHT22;374;52.568;13.402;2023-07-28T07:19:13;18.20;99.90
782;DHT22;374;52.568;13.402;2023-07-28T07:21:41;18.20;99.90
782;DHT22;374;52.568;13.402;2023-07-28T07:24:07;18.20;99.90
782;DHT22;374;52.568;13.402;2023-07-28T07:26:35;18.20;99.90
782;DHT22;374;52.568;13.402;2023-07-28T07:29:00;18.20;99.90
782;DHT22;374;52.568;13.402;2023-07-28T07:31:26;18.20;99.90
782;DHT22;374;52.568;13.402;2023-07-28T07:33:51;18.20;99.90
782;DHT22;374;52.568;13.402;2023-07-28T07:36:19;18.20;99.90
782;DHT22;374;52.568;13.402;2023-07-28T07:38:45;18.10;99.90
782;DHT22;374;52.568;13.402;2023-07-28T07:41:12;18.20;99.90
782;DHT22;374;52.568;13.402;2023-07-28T07:43:47;18.20;99.90
782;DHT22;374;52.568;13.402;2023-07-28T07:46:14;18.20;99.90
782;DHT22;374;52.568;13.402;2023-07-28T07:48:40;18.20;99.90
782;DHT22;374;52.568;13.402;2023-07-28T07:51:06;18.20;99.90
782;DHT22;374;52.568;13.402;2023-07-28T07:53:31;18.20;99.90
782;DHT22;374;52.568;13.402;2023-07-28T07:55:57;18.30;99.90
782;DHT22;374;52.568;13.402;2023-07-28T07:58:22;18.20;99.90
782;DHT22;374;52.568;13.402;2023-07-28T08:00:48;18.30;99.90
782;DHT22;374;52.568;13.402;2023-07-28T08:03:16;18.30;99.90
782;DHT22;374;52.568;13.402;2023-07-28T08:05:41;18.30;99.90
782;DHT22;374;52.568;13.402;2023-07-28T08:08:07;18.30;99.90
782;DHT22;374;52.568;13.402;2023-07-28T08:10:34;18.30;99.90
782;DHT22;374;52.568;13.402;2023-07-28T08:13:01;18.40;99.90
782;DHT22;374;52.568;13.402;2023-07-28T08:15:29;18.30;99.90
782;DHT22;374;52.568;13.402;2023-07-28T08:17:55;18.40;99.90
782;DHT22;374;52.568;13.402;2023-07-28T08:20:20;18.40;99.90
782;DHT22;374;52.568;13.402;2023-07-28T08:22:46;18.40;99.90
782;DHT22;374;52.568;13.402;2023-07-28T08:25:11;18.40;99.90
782;DHT22;374;52.568;13.402;2023-07-28T08:27:37;18.40;99.90
782;DHT22;374;52.568;13.402;2023-07-28T08:30:03;18.40;99.90
782;DHT22;374;52.568;13.402;2023-07-28T08:32:28;18.40;99.90
782;DHT22;374;52.568;13.402;2023-07-28T08:34:54;18.50;99.90
782;DHT22;374;52.568;13.402;2023-07-28T08:37:20;18.50;99.90
782;DHT22;374;52.568;13.402;2023-07-28T08:39:45;18.50;99.90
782;DHT22;374;52.568;13.402;2023-07-28T08:42:11;18.50;99.90
782;DHT22;374;52.568;13.402;2023-07-28T08:44:36;18.50;99.90
782;DHT22;374;52.568;13.402;2023-07-28T08:47:03;18.50;99.90
782;DHT22;374;52.568;13.402;2023-07-28T08:49:32;18.50;99.90
782;DHT22;374;52.568;13.402;2023-07-28T08:52:00;18.50;99.90
782;DHT22;374;52.568;13.402;2023-07-28T08:54:26;18.50;99.90
782;DHT22;374;52.568;13.402;2023-07-28T08:56:52;18.60;99.90
782;DHT22;374;52.568;13.402;2023-07-28T08:59:22;18.60;99.90
782;DHT22;374;52.568;13.402;2023-07-28T09:01:50;18.60;99.90
782;DHT22;374;52.568;13.402;2023-07-28T09:04:15;18.60;99.90
782;DHT22;374;52.568;13.402;2023-07-28T09:06:44;18.60;99.90
782;DHT22;374;52.568;13.402;2023-07-28T09:09:10;18.60;99.90
782;DHT22;374;52.568;13.402;2023-07-28T09:11:44;18.60;99.90
782;DHT22;374;52.568;13.402;2023-07-28T09:14:12;18.60;99.90
782;DHT22;374;52.568;13.402;2023-07-28T09:16:38;18.60;99.90
782;DHT22;374;52.568;13.402;2023-07-28T09:19:07;18.70;99.90
782;DHT22;374;52.568;13.402;2023-07-28T09:21:37;18.60;99.90
782;DHT22;374;52.568;13.402;2023-07-28T09:24:07;18.60;99.90
782;DHT22;374;52.568;13.402;2023-07-28T09:26:44;18.60;99.90
782;DHT22;374;52.568;13.402;2023-07-28T09:29:17;18.70;99.90
782;DHT22;374;52.568;13.402;2023-07-28T09:31:44;18.60;99.90
782;DHT22;374;52.568;13.402;2023-07-28T09:34:10;18.70;99.90
782;DHT22;374;52.568;13.402;2023-07-28T09:36:36;18.70;99.90
782;DHT22;374;52.568;13.402;2023-07-28T09:39:04;18.70;99.90
782;DHT22;374;52.568;13.402;2023-07-28T09:41:34;18.70;99.90
782;DHT22;374;52.568;13.402;2023-07-28T09:43:59;18.70;99.90
782;DHT22;374;52.568;13.402;2023-07-28T09:46:28;18.70;99.90
782;DHT22;374;52.568;13.402;2023-07-28T09:48:56;18.70;99.90
782;DHT22;374;52.568;13.402;2023-07-28T09:51:29;18.80;99.90
782;DHT22;374;52.568;13.402;2023-07-28T09:54:11;18.80;99.90
782;DHT22;374;52.568;13.402;2023-07-28T09:56:38;18.80;99.90
782;DHT22;374;52.568;13.402;2023-07-28T09:59:10;18.80;99.90
782;DHT22;374;52.568;13.402;2023-07-28T10:01:38;18.90;99.90
782;DHT22;374;52.568;13.402;2023-07-28T10:04:05;18.90;99.90
782;DHT22;374;52.568;13.402;2023-07-28T10:06:31;18.90;99.90
782;DHT22;374;52.568;13.402;2023-07-28T10:08:59;18.90;99.90
782;DHT22;374;52.568;13.402;2023-07-28T10:11:25;18.90;99.90
782;DHT22;374;52.568;13.402;2023-07-28T10:13:51;19.00;99.90
782;DHT22;374;52.568;13.402;2023-07-28T10:16:19;19.00;99.90
782;DHT22;374;52.568;13.402;2023-07-28T10:18:54;19.00;99.90
782;DHT22;374;52.568;13.402;2023-07-28T10:21:20;19.00;99.90
782;DHT22;374;52.568;13.402;2023-07-28T10:23:57;19.00;99.90
782;DHT22;374;52.568;13.402;2023-07-28T10:26:38;19.00;99.90
782;DHT22;374;52.568;13.402;2023-07-28T10:29:08;19.00;99.90
782;DHT22;374;52.568;13.402;2023-07-28T10:31:34;19.00;99.90
782;DHT22;374;52.568;13.402;2023-07-28T10:34:00;19.10;99.90
782;DHT22;374;52.568;13.402;2023-07-28T10:39:20;19.20;99.90
782;DHT22;374;52.568;13.402;2023-07-28T10:42:05;19.20;99.90
782;DHT22;374;52.568;13.402;2023-07-28T10:44:31;19.20;99.90
782;DHT22;374;52.568;13.402;2023-07-28T10:46:57;19.20;99.90
782;DHT22;374;52.568;13.402;2023-07-28T10:49:24;19.20;99.90
782;DHT22;374;52.568;13.402;2023-07-28T10:51:50;19.30;99.90
782;DHT22;374;52.568;13.402;2023-07-28T10:54:16;19.20;99.90
782;DHT22;374;52.568;13.402;2023-07-28T10:56:42;19.20;99.90
782;DHT22;374;52.568;13.402;2023-07-28T10:59:07;19.20;99.90
782;DHT22;374;52.568;13.402;2023-07-28T11:01:34;19.20;99.90
782;DHT22;374;52.568;13.402;2023-07-28T11:04:10;19.20;99.90
782;DHT22;374;52.568;13.402;2023-07-28T11:06:38;19.20;99.90
782;DHT22;374;52.568;13.402;2023-07-28T11:09:08;19.20;99.90
782;DHT22;374;52.568;13.402;2023-07-28T11:11:35;19.20;99.90
782;DHT22;374;52.568;13.402;2023-07-28T11:14:01;19.20;99.90
782;DHT22;374;52.568;13.402;2023-07-28T11:16:28;19.20;99.90
782;DHT22;374;52.568;13.402;2023-07-28T11:19:01;19.20;99.90
782;DHT22;374;52.568;13.402;2023-07-28T11:21:27;19.30;99.90
782;DHT22;374;52.568;13.402;2023-07-28T11:23:53;19.20;99.90
782;DHT22;374;52.568;13.402;2023-07-28T11:26:20;19.20;99.90
782;DHT22;374;52.568;13.402;2023-07-28T11:28:46;19.30;99.90
782;DHT22;374;52.568;13.402;2023-07-28T11:31:12;19.30;99.90
782;DHT22;374;52.568;13.402;2023-07-28T11:33:37;19.30;99.90
782;DHT22;374;52.568;13.402;2023-07-28T11:36:03;19.30;99.90
782;DHT22;374;52.568;13.402;2023-07-28T11:38:28;19.30;99.90
782;DHT22;374;52.568;13.402;2023-07-28T11:40:54;19.30;99.90
782;DHT22;374;52.568;13.402;2023-07-28T11:43:22;19.30;99.90
782;DHT22;374;52.568;13.402;2023-07-28T11:45:48;19.30;99.90
782;DHT22;374;52.568;13.402;2023-07-28T11:48:14;19.40;99.90
782;DHT22;374;52.568;13.402;2023-07-28T11:50:41;19.40;99.90
782;DHT22;374;52.568;13.402;2023-07-28T11:53:08;19.40;99.90
782;DHT22;374;52.568;13.402;2023-07-28T11:55:38;19.40;99.90
782;DHT22;374;52.568;13.402;2023-07-28T11:58:05;19.40;99.90
782;DHT22;374;52.568;13.402;2023-07-28T12:00:35;19.40;99.90
782;DHT22;374;52.568;13.402;2023-07-28T12:03:12;19.40;99.90
782;DHT22;374;52.568;13.402;2023-07-28T12:05:39;19.40;99.90
782;DHT22;374;52.568;13.402;2023-07-28T12:08:05;19.50;99.90
782;DHT22;374;52.568;13.402;2023-07-28T12:10:35;19.40;99.90
782;DHT22;374;52.568;13.402;2023-07-28T12:13:06;19.40;99.90
782;DHT22;374;52.568;13.402;2023-07-28T12:15:32;19.40;99.90
782;DHT22;374;52.568;13.402;2023-07-28T12:18:11;19.50;99.90
782;DHT22;374;52.568;13.402;2023-07-28T12:20:40;19.40;99.90
782;DHT22;374;52.568;13.402;2023-07-28T12:23:07;19.50;99.90
782;DHT22;374;52.568;13.402;2023-07-28T12:25:34;19.50;99.90
782;DHT22;374;52.568;13.402;2023-07-28T12:28:02;19.50;99.90
782;DHT22;374;52.568;13.402;2023-07-28T12:30:27;19.50;99.90
782;DHT22;374;52.568;13.402;2023-07-28T12:32:53;19.50;99.90
782;DHT22;374;52.568;13.402;2023-07-28T12:35:25;19.40;99.90
782;DHT22;374;52.568;13.402;2023-07-28T12:37:52;19.50;99.90
782;DHT22;374;52.568;13.402;2023-07-28T12:40:18;19.50;99.90
782;DHT22;374;52.568;13.402;2023-07-28T12:42:47;19.50;99.90
782;DHT22;374;52.568;13.402;2023-07-28T12:45:14;19.50;99.90
782;DHT22;374;52.568;13.402;2023-07-28T12:47:41;19.50;99.90
782;DHT22;374;52.568;13.402;2023-07-28T12:50:10;19.50;99.90
782;DHT22;374;52.568;13.402;2023-07-28T12:52:36;19.50;99.90
782;DHT22;374;52.568;13.402;2023-07-28T12:55:10;19.50;99.90
782;DHT22;374;52.568;13.402;2023-07-28T12:57:36;19.50;99.90
782;DHT22;374;52.568;13.402;2023-07-28T13:00:07;19.60;99.90
782;DHT22;374;52.568;13.402;2023-07-28T13:02:41;19.60;99.90
782;DHT22;374;52.568;13.402;2023-07-28T13:05:08;19.60;99.90
782;DHT22;374;52.568;13.402;2023-07-28T13:07:36;19.60;99.90
782;DHT22;374;52.568;13.402;2023-07-28T13:10:01;19.60;99.90
782;DHT22;374;52.568;13.402;2023-07-28T13:12:28;19.70;99.90
782;DHT22;374;52.568;13.402;2023-07-28T13:14:54;19.70;99.90
782;DHT22;374;52.568;13.402;2023-07-28T13:17:19;19.70;99.90
782;DHT22;374;52.568;13.402;2023-07-28T13:19:47;19.70;99.90
782;DHT22;374;52.568;13.402;2023-07-28T13:22:13;19.70;99.90
782;DHT22;374;52.568;13.402;2023-07-28T13:24:38;19.70;99.90
782;DHT22;374;52.568;13.402;2023-07-28T13:27:04;19.80;99.90
782;DHT22;374;52.568;13.402;2023-07-28T13:29:30;19.80;99.90
782;DHT22;374;52.568;13.402;2023-07-28T13:31:59;19.80;99.90
782;DHT22;374;52.568;13.402;2023-07-28T13:34:26;19.80;99.90
782;DHT22;374;52.568;13.402;2023-07-28T13:36:52;19.70;99.90
782;DHT22;374;52.568;13.402;2023-07-28T13:39:18;19.70;99.90
782;DHT22;374;52.568;13.402;2023-07-28T13:41:44;19.80;99.90
782;DHT22;374;52.568;13.402;2023-07-28T13:44:09;19.80;99.90
782;DHT22;374;52.568;13.402;2023-07-28T13:46:34;19.80;99.90
782;DHT22;374;52.568;13.402;2023-07-28T13:49:00;19.80;99.90
782;DHT22;374;52.568;13.402;2023-07-28T13:51:25;19.80;99.90
782;DHT22;374;52.568;13.402;2023-07-28T13:53:51;19.90;99.90
782;DHT22;374;52.568;13.402;2023-07-28T13:56:16;19.90;99.90
782;DHT22;374;52.568;13.402;2023-07-28T13:58:42;19.90;99.90
782;DHT22;374;52.568;13.402;2023-07-28T14:01:07;19.90;99.90
782;DHT22;374;52.568;13.402;2023-07-28T14:03:33;19.90;99.90
782;DHT22;374;52.568;13.402;2023-07-28T14:05:58;19.90;99.90
782;DHT22;374;52.568;13.402;2023-07-28T14:08:24;19.90;99.90
782;DHT22;374;52.568;13.402;2023-07-28T14:10:51;19.90;99.90
782;DHT22;374;52.568;13.402;2023-07-28T14:13:16;19.90;99.90
782;DHT22;374;52.568;13.402;2023-07-28T14:15:42;20.00;99.90
782;DHT22;374;52.568;13.402;2023-07-28T14:18:07;19.90;99.90
782;DHT22;374;52.568;13.402;2023-07-28T14:20:33;19.90;99.90
782;DHT22;374;52.568;13.402;2023-07-28T14:22:59;20.00;99.90
782;DHT22;374;52.568;13.402;2023-07-28T14:25:29;19.90;99.90
782;DHT22;374;52.568;13.402;2023-07-28T14:27:54;19.90;99.90
782;DHT22;374;52.568;13.402;2023-07-28T14:30:20;20.00;99.90
782;DHT22;374;52.568;13.402;2023-07-28T14:32:46;20.00;99.90
782;DHT22;374;52.568;13.402;2023-07-28T14:35:11;20.00;99.90
782;DHT22;374;52.568;13.402;2023-07-28T14:37:37;20.00;99.90
782;DHT22;374;52.568;13.402;2023-07-28T14:40:02;20.00;99.90
782;DHT22;374;52.568;13.402;2023-07-28T14:42:28;20.00;99.90
782;DHT22;374;52.568;13.402;2023-07-28T14:44:54;20.00;99.90
782;DHT22;374;52.568;13.402;2023-07-28T14:47:19;20.10;99.90
782;DHT22;374;52.568;13.402;2023-07-28T14:49:45;20.10;99.90
782;DHT22;374;52.568;13.402;2023-07-28T14:52:10;20.10;99.90
782;DHT22;374;52.568;13.402;2023-07-28T14:54:36;20.10;99.90
782;DHT22;374;52.568;13.402;2023-07-28T14:57:01;20.20;99.90
782;DHT22;374;52.568;13.402;2023-07-28T14:59:26;20.10;99.90
782;DHT22;374;52.568;13.402;2023-07-28T15:01:52;20.20;99.90
782;DHT22;374;52.568;13.402;2023-07-28T15:04:17;20.20;99.90
782;DHT22;374;52.568;13.402;2023-07-28T15:06:43;20.10;99.90
782;DHT22;374;52.568;13.402;2023-07-28T15:09:08;20.20;99.90
782;DHT22;374;52.568;13.402;2023-07-28T15:11:34;20.20;99.90
782;DHT22;374;52.568;13.402;2023-07-28T15:14:00;20.20;99.90
782;DHT22;374;52.568;13.402;2023-07-28T15:16:25;20.20;99.90
782;DHT22;374;52.568;13.402;2023-07-28T15:18:50;20.20;99.90
782;DHT22;374;52.568;13.402;2023-07-28T15:21:16;20.20;99.90
782;DHT22;374;52.568;13.402;2023-07-28T15:23:42;20.20;99.90
782;DHT22;374;52.568;13.402;2023-07-28T15:26:07;20.20;99.90
782;DHT22;374;52.568;13.402;2023-07-28T15:28:33;20.30;99.90
782;DHT22;374;52.568;13.402;2023-07-28T15:30:59;20.20;99.90
782;DHT22;374;52.568;13.402;2023-07-28T15:33:25;20.20;99.90
782;DHT22;374;52.568;13.402;2023-07-28T15:35:54;20.20;99.90
782;DHT22;374;52.568;13.402;2023-07-28T15:38:20;20.30;99.90
782;DHT22;374;52.568;13.402;2023-07-28T15:40:46;20.30;99.90
782;DHT22;374;52.568;13.402;2023-07-28T15:43:11;20.30;99.90
782;DHT22;374;52.568;13.402;2023-07-28T15:45:37;20.30;99.90
782;DHT22;374;52.568;13.402;2023-07-28T15:48:02;20.30;99.90
782;DHT22;374;52.568;13.402;2023-07-28T15:50:28;20.30;99.90
782;DHT22;374;52.568;13.402;2023-07-28T15:52:53;20.30;99.90
782;DHT22;374;52.568;13.402;2023-07-28T15:55:19;20.30;99.90
782;DHT22;374;52.568;13.402;2023-07-28T15:57:45;20.40;99.90
782;DHT22;374;52.568;13.402;2023-07-28T16:00:11;20.30;99.90
782;DHT22;374;52.568;13.402;2023-07-28T16:02:39;20.30;99.90
782;DHT22;374;52.568;13.402;2023-07-28T16:05:06;20.30;99.90
782;DHT22;374;52.568;13.402;2023-07-28T16:07:31;20.30;99.90
782;DHT22;374;52.568;13.402;2023-07-28T16:09:58;20.30;99.90
782;DHT22;374;52.568;13.402;2023-07-28T16:12:23;20.30;99.90
782;DHT22;374;52.568;13.402;2023-07-28T16:14:48;20.40;99.90
782;DHT22;374;52.568;13.402;2023-07-28T16:17:14;20.40;99.90